Time;durP1;ratioP1;P1;durP2;ratioP2;P2;SDS_P1;SDS_P2;PMS_P1;PMS_P2;Temp;Humidity;BMP_temperature;BMP_pressure;BME280_temperature;BME280_humidity;BME280_pressure;Samples;Min_cycle;Max_cycle;Signal;HPM_P1;HPM_P2
2023/11/12 00:01:31;;;;;;;;;;;;;;;6.46;100.00;100516.13;5031972;28;19924;-41
2023/11/12 00:03:57;;;;;;;;;;;;;;;6.54;100.00;100513.47;5054389;28;20406;-42
2023/11/12 00:06:22;;;;;;;;;;;;;;;6.57;100.00;100515.81;5054562;28;20306;-41
2023/11/12 00:08:47;;;;;;;;;;;;;;;6.57;100.00;100510.47;5038368;28;20402;-42
2023/11/12 00:11:14;;;;;;;;;;;;;;;6.55;100.00;100512.47;5034165;28;19913;-41
2023/11/12 00:13:39;;;;;;;;;;;;;;;6.49;100.00;100511.28;5034302;28;19913;-41
2023/11/12 00:16:04;;;;;;;;;;;;;;;6.46;100.00;100510.78;5034297;28;20383;-41
2023/11/12 00:18:29;;;;;;;;;;;;;;;6.43;100.00;100516.47;5046698;28;20374;-41
2023/11/12 00:20:55;;;;;;;;;;;;;;;6.42;100.00;100514.78;5053993;28;19913;-41
2023/11/12 00:23:23;;;;;;;;;;;;;;;6.46;100.00;100505.44;5053672;28;19913;-41
2023/11/12 00:25:49;;;;;;;;;;;;;;;6.44;100.00;100510.94;5054053;28;19917;-41
2023/11/12 00:28:14;;;;;;;;;;;;;;;6.43;100.00;100508.44;5054454;28;19923;-41
2023/11/12 00:30:40;;;;;;;;;;;;;;;6.41;100.00;100510.44;5048103;28;20000;-41
2023/11/12 00:33:05;;;;;;;;;;;;;;;6.35;100.00;100499.41;5034996;28;19953;-39
2023/11/12 00:35:30;;;;;;;;;;;;;;;6.30;100.00;100491.03;5037962;28;19949;-41
2023/11/12 00:37:55;;;;;;;;;;;;;;;6.26;100.00;100495.00;5035407;28;19917;-41
2023/11/12 00:40:21;;;;;;;;;;;;;;;6.22;100.00;100492.84;5034317;28;19976;-41
2023/11/12 00:42:46;;;;;;;;;;;;;;;6.18;100.00;100492.31;5034069;28;20189;-41
2023/11/12 00:45:11;;;;;;;;;;;;;;;6.12;100.00;100496.47;5034005;28;19920;-41
2023/11/12 00:47:37;;;;;;;;;;;;;;;6.03;100.00;100492.13;5033779;28;19924;-41
2023/11/12 00:50:03;;;;;;;;;;;;;;;5.98;100.00;100496.25;5033878;28;19940;-41
2023/11/12 00:52:28;;;;;;;;;;;;;;;5.90;100.00;100492.53;5035761;28;19917;-41
2023/11/12 00:54:53;;;;;;;;;;;;;;;5.80;100.00;100493.66;5033609;28;19913;-41
2023/11/12 00:57:19;;;;;;;;;;;;;;;5.74;100.00;100495.13;5033292;28;19912;-41
2023/11/12 00:59:44;;;;;;;;;;;;;;;5.67;100.00;100492.22;5033869;28;19999;-41
2023/11/12 01:02:15;;;;;;;;;;;;;;;5.65;100.00;100491.56;5033519;28;19917;-41
2023/11/12 01:04:40;;;;;;;;;;;;;;;5.65;100.00;100485.38;5033838;28;19909;-41
2023/11/12 01:07:05;;;;;;;;;;;;;;;5.63;100.00;100484.69;5033724;28;20393;-40
2023/11/12 01:09:30;;;;;;;;;;;;;;;5.61;100.00;100484.00;5033087;28;19909;-40
2023/11/12 01:11:56;;;;;;;;;;;;;;;5.58;100.00;100477.19;5033294;28;19987;-40
2023/11/12 01:14:21;;;;;;;;;;;;;;;5.59;100.00;100478.00;5033354;28;19957;-40
2023/11/12 01:16:46;;;;;;;;;;;;;;;5.60;100.00;100485.00;5032946;28;20364;-40
2023/11/12 01:19:12;;;;;;;;;;;;;;;5.61;100.00;100479.53;5015074;28;20291;-41
2023/11/12 01:21:37;;;;;;;;;;;;;;;5.63;100.00;100474.84;5012790;28;19920;-42
2023/11/12 01:24:02;;;;;;;;;;;;;;;5.66;100.00;100473.69;5013800;28;20344;-41
2023/11/12 01:26:27;;;;;;;;;;;;;;;5.71;100.00;100474.06;4995481;28;20354;-40
2023/11/12 01:28:53;;;;;;;;;;;;;;;5.80;100.00;100478.44;5023217;28;19917;-40
2023/11/12 01:31:19;;;;;;;;;;;;;;;5.92;100.00;100479.84;5031093;28;19913;-40
2023/11/12 01:33:44;;;;;;;;;;;;;;;6.00;100.00;100478.22;5032947;28;20375;-40
2023/11/12 01:36:11;;;;;;;;;;;;;;;6.10;100.00;100484.28;5033058;28;20005;-40
2023/11/12 01:38:36;;;;;;;;;;;;;;;6.20;100.00;100484.97;5032276;28;19917;-40
2023/11/12 01:41:03;;;;;;;;;;;;;;;6.23;100.00;100490.00;5032673;28;20291;-40
2023/11/12 01:43:31;;;;;;;;;;;;;;;6.27;100.00;100491.34;5032189;28;19936;-41
2023/11/12 01:45:57;;;;;;;;;;;;;;;6.30;100.00;100487.53;5032940;28;20308;-41
2023/11/12 01:48:22;;;;;;;;;;;;;;;6.32;100.00;100482.84;5029939;28;19970;-40
2023/11/12 01:50:47;;;;;;;;;;;;;;;6.36;100.00;100479.66;5032580;28;20001;-40
2023/11/12 01:53:13;;;;;;;;;;;;;;;6.41;100.00;100483.69;5031270;28;20352;-42
2023/11/12 01:55:38;;;;;;;;;;;;;;;6.44;100.00;100486.03;5030896;28;19913;-40
2023/11/12 01:58:04;;;;;;;;;;;;;;;6.45;100.00;100487.72;5014549;28;19917;-40
2023/11/12 02:00:29;;;;;;;;;;;;;;;6.45;100.00;100490.38;5031566;28;19992;-41
2023/11/12 02:02:55;;;;;;;;;;;;;;;6.47;100.00;100485.72;5034663;28;19920;-41
2023/11/12 02:05:20;;;;;;;;;;;;;;;6.49;100.00;100481.03;5052225;28;20375;-41
2023/11/12 02:07:47;;;;;;;;;;;;;;;6.56;100.00;100482.91;5045552;28;19940;-41
2023/11/12 02:10:15;;;;;;;;;;;;;;;6.59;100.00;100481.75;5012511;28;20000;-41
2023/11/12 02:12:43;;;;;;;;;;;;;;;6.61;100.00;100482.41;5012559;28;19948;-42
2023/11/12 02:15:09;;;;;;;;;;;;;;;6.61;100.00;100487.75;5012495;28;19984;-41
2023/11/12 02:17:34;;;;;;;;;;;;;;;6.61;100.00;100482.41;5030296;28;19916;-41
2023/11/12 02:20:03;;;;;;;;;;;;;;;6.63;100.00;100487.56;5032414;28;19913;-40
2023/11/12 02:22:29;;;;;;;;;;;;;;;6.64;100.00;100489.28;5031744;28;19917;-41
2023/11/12 02:24:54;;;;;;;;;;;;;;;6.63;100.00;100475.03;5031931;28;19920;-41
2023/11/12 02:27:19;;;;;;;;;;;;;;;6.65;100.00;100481.06;5032144;28;19959;-41
2023/11/12 02:29:48;;;;;;;;;;;;;;;6.68;100.00;100472.72;5032239;28;19959;-41
2023/11/12 02:32:13;;;;;;;;;;;;;;;6.68;100.00;100475.38;5031813;28;20286;-41
2023/11/12 02:34:39;;;;;;;;;;;;;;;6.68;100.00;100472.72;5031858;28;19920;-42
2023/11/12 02:37:04;;;;;;;;;;;;;;;6.64;100.00;100466.03;5013905;28;19917;-42
2023/11/12 02:39:29;;;;;;;;;;;;;;;6.57;100.00;100471.19;5031369;28;20387;-42
2023/11/12 02:41:55;;;;;;;;;;;;;;;6.60;100.00;100476.22;5031655;28;20430;-42
2023/11/12 02:44:21;;;;;;;;;;;;;;;6.62;100.00;100477.91;5031526;28;20024;-42
2023/11/12 02:46:46;;;;;;;;;;;;;;;6.63;100.00;100477.72;5031161;28;19937;-42
2023/11/12 02:49:30;;;;;;;;;;;;;;;6.62;100.00;100481.41;5031204;28;19917;-42
2023/11/12 02:51:55;;;;;;;;;;;;;;;6.63;100.00;100467.03;5031777;28;20012;-42
2023/11/12 02:54:21;;;;;;;;;;;;;;;6.64;100.00;100463.34;5033351;28;20347;-42
2023/11/12 02:56:46;;;;;;;;;;;;;;;6.63;100.00;100475.03;5035928;28;19913;-41
2023/11/12 02:59:11;;;;;;;;;;;;;;;6.60;100.00;100486.91;5035299;28;19917;-42
2023/11/12 03:01:36;;;;;;;;;;;;;;;6.59;100.00;100479.06;5017946;28;19940;-41
2023/11/12 03:04:02;;;;;;;;;;;;;;;6.61;100.00;100474.38;5035749;28;19913;-41
2023/11/12 03:06:27;;;;;;;;;;;;;;;6.60;100.00;100478.03;5035465;28;19920;-41
2023/11/12 03:08:54;;;;;;;;;;;;;;;6.61;100.00;100477.06;5017713;28;19936;-42
2023/11/12 03:11:19;;;;;;;;;;;;;;;6.63;100.00;100474.22;5035539;28;20085;-42
2023/11/12 03:13:44;;;;;;;;;;;;;;;6.65;100.00;100482.91;5035522;28;20003;-42
2023/11/12 03:16:12;;;;;;;;;;;;;;;6.64;100.00;100482.06;5035272;28;20433;-42
2023/11/12 03:18:38;;;;;;;;;;;;;;;6.64;100.00;100481.25;5035562;28;19913;-42
2023/11/12 03:21:04;;;;;;;;;;;;;;;6.63;100.00;100480.38;5034338;28;19917;-42
2023/11/12 03:23:29;;;;;;;;;;;;;;;6.63;100.00;100482.22;5035543;28;19917;-42
2023/11/12 03:25:55;;;;;;;;;;;;;;;6.63;100.00;100472.38;5035376;28;20344;-41
2023/11/12 03:28:20;;;;;;;;;;;;;;;6.65;100.00;100474.88;5035423;28;20403;-41
2023/11/12 03:30:46;;;;;;;;;;;;;;;6.64;100.00;100475.91;5035068;28;20376;-41
2023/11/12 03:33:11;;;;;;;;;;;;;;;6.64;100.00;100471.38;5034980;28;20414;-41
2023/11/12 03:35:37;;;;;;;;;;;;;;;6.66;100.00;100474.72;5034851;28;19924;-41
2023/11/12 03:38:02;;;;;;;;;;;;;;;6.67;100.00;100471.03;5035447;28;20286;-42
2023/11/12 03:40:27;;;;;;;;;;;;;;;6.74;100.00;100471.19;5035142;28;19920;-42
2023/11/12 03:42:52;;;;;;;;;;;;;;;6.80;100.00;100468.72;5035011;28;19932;-42
2023/11/12 03:45:19;;;;;;;;;;;;;;;6.87;100.00;100473.38;5035053;28;19913;-42
2023/11/12 03:47:44;;;;;;;;;;;;;;;6.91;100.00;100472.91;5034956;28;19939;-42
2023/11/12 03:50:09;;;;;;;;;;;;;;;6.95;100.00;100473.38;5034891;28;20372;-41
2023/11/12 03:52:35;;;;;;;;;;;;;;;6.97;100.00;100471.38;5035485;28;19913;-41
2023/11/12 03:55:00;;;;;;;;;;;;;;;7.00;100.00;100468.38;5035980;28;19963;-41
2023/11/12 03:57:25;;;;;;;;;;;;;;;7.03;100.00;100470.72;5035887;28;19917;-41
2023/11/12 03:59:51;;;;;;;;;;;;;;;7.03;100.00;100468.06;5035594;28;19963;-41
2023/11/12 04:02:18;;;;;;;;;;;;;;;7.05;100.00;100468.69;5035478;28;19923;-41
2023/11/12 04:04:43;;;;;;;;;;;;;;;7.04;100.00;100472.41;5035229;28;20371;-41
2023/11/12 04:07:08;;;;;;;;;;;;;;;7.04;100.00;100472.41;5035498;28;19967;-42
2023/11/12 04:09:34;;;;;;;;;;;;;;;7.04;100.00;100472.41;5035446;28;19917;-42
2023/11/12 04:11:59;;;;;;;;;;;;;;;7.02;100.00;100466.38;5035083;28;19920;-43
2023/11/12 04:14:24;;;;;;;;;;;;;;;7.02;100.00;100466.38;5034596;28;19917;-44
2023/11/12 04:16:49;;;;;;;;;;;;;;;7.02;100.00;100464.53;5046314;28;19916;-44
2023/11/12 04:19:14;;;;;;;;;;;;;;;7.02;100.00;100464.53;5054581;28;19916;-44
2023/11/12 04:21:40;;;;;;;;;;;;;;;7.04;100.00;100467.03;5054374;28;19924;-43
2023/11/12 04:24:05;;;;;;;;;;;;;;;7.01;100.00;100465.53;5054180;28;19967;-44
2023/11/12 04:26:31;;;;;;;;;;;;;;;7.04;100.00;100467.03;5054165;28;20264;-42
2023/11/12 04:28:56;;;;;;;;;;;;;;;7.05;100.00;100463.34;5053841;28;19987;-42
2023/11/12 04:31:22;;;;;;;;;;;;;;;7.07;100.00;100471.22;5054392;28;19913;-41
2023/11/12 04:33:47;;;;;;;;;;;;;;;7.08;100.00;100472.88;5053935;28;19920;-41
2023/11/12 04:36:12;;;;;;;;;;;;;;;7.09;100.00;100469.22;5054258;28;19916;-40
2023/11/12 04:38:38;;;;;;;;;;;;;;;7.07;100.00;100466.69;5054500;28;19924;-39
2023/11/12 04:41:03;;;;;;;;;;;;;;;7.05;100.00;100471.38;5053827;28;20019;-38
2023/11/12 04:43:28;;;;;;;;;;;;;;;7.05;100.00;100468.69;5053609;28;19969;-40
2023/11/12 04:45:54;;;;;;;;;;;;;;;7.06;100.00;100469.53;5053860;28;20013;-41
2023/11/12 04:48:19;;;;;;;;;;;;;;;7.05;100.00;100474.06;5053913;28;20248;-41
2023/11/12 04:50:46;;;;;;;;;;;;;;;7.05;100.00;100476.72;5053770;28;19912;-40
2023/11/12 04:53:11;;;;;;;;;;;;;;;7.05;100.00;100484.75;5050334;28;20359;-40
2023/11/12 04:55:38;;;;;;;;;;;;;;;7.04;100.00;100480.41;5033935;28;20011;-39
2023/11/12 04:58:06;;;;;;;;;;;;;;;7.03;100.00;100482.28;5033767;28;19921;-37
2023/11/12 05:00:31;;;;;;;;;;;;;;;7.06;100.00;100483.78;5017726;28;19920;-37
2023/11/12 05:02:57;;;;;;;;;;;;;;;7.03;100.00;100490.28;5052135;28;20360;-38
2023/11/12 05:05:22;;;;;;;;;;;;;;;7.03;100.00;100492.97;5055952;28;19961;-37
2023/11/12 05:07:48;;;;;;;;;;;;;;;7.03;100.00;100492.13;5054200;28;20068;-39
2023/11/12 05:10:14;;;;;;;;;;;;;;;7.04;100.00;100489.28;5052922;28;19980;-39
2023/11/12 05:12:39;;;;;;;;;;;;;;;7.01;100.00;100494.13;5052192;28;19957;-38
2023/11/12 05:15:08;;;;;;;;;;;;;;;7.02;100.00;100493.97;5053388;28;20004;-39
2023/11/12 05:17:33;;;;;;;;;;;;;;;7.00;100.00;100492.44;5052137;28;20287;-39
2023/11/12 05:19:59;;;;;;;;;;;;;;;6.98;100.00;100495.31;5053085;28;19928;-41
2023/11/12 05:22:24;;;;;;;;;;;;;;;6.94;100.00;100488.59;5052733;28;19913;-38
2023/11/12 05:24:51;;;;;;;;;;;;;;;6.94;100.00;100487.78;5053185;28;19921;-41
2023/11/12 05:27:16;;;;;;;;;;;;;;;6.91;100.00;100486.28;5052923;28;20330;-41
2023/11/12 05:29:42;;;;;;;;;;;;;;;6.90;100.00;100491.78;5052702;28;19909;-39
2023/11/12 05:32:07;;;;;;;;;;;;;;;6.86;100.00;100487.78;5052143;28;19940;-39
2023/11/12 05:34:32;;;;;;;;;;;;;;;6.84;100.00;100489.78;5052072;28;19912;-38
2023/11/12 05:36:58;;;;;;;;;;;;;;;6.84;100.00;100500.47;5052598;28;20037;-39
2023/11/12 05:39:23;;;;;;;;;;;;;;;6.81;100.00;100498.97;5052771;28;19919;-39
2023/11/12 05:41:49;;;;;;;;;;;;;;;6.78;100.00;100501.97;5044097;28;19920;-38
2023/11/12 05:44:15;;;;;;;;;;;;;;;6.79;100.00;100495.63;5046644;28;19920;-40
2023/11/12 05:46:40;;;;;;;;;;;;;;;6.73;100.00;100497.13;5052082;28;19919;-39
2023/11/12 05:49:05;;;;;;;;;;;;;;;6.72;100.00;100505.31;5052530;28;19916;-38
2023/11/12 05:51:30;;;;;;;;;;;;;;;6.71;100.00;100504.47;5039439;28;19967;-39
2023/11/12 05:53:55;;;;;;;;;;;;;;;6.70;100.00;100494.78;5033500;28;19917;-37
2023/11/12 05:56:21;;;;;;;;;;;;;;;6.67;100.00;100497.78;5033715;28;19959;-39
2023/11/12 05:58:46;;;;;;;;;;;;;;;6.69;100.00;100503.81;5033576;28;19918;-40
2023/11/12 06:01:12;;;;;;;;;;;;;;;6.68;100.00;100504.78;5034594;28;19919;-40
2023/11/12 06:03:37;;;;;;;;;;;;;;;6.68;100.00;100503.97;5033341;28;19956;-40
2023/11/12 06:06:02;;;;;;;;;;;;;;;6.72;100.00;100506.16;5039402;28;19913;-38
2023/11/12 06:08:27;;;;;;;;;;;;;;;6.68;100.00;100509.31;5032385;28;20371;-38
2023/11/12 06:10:54;;;;;;;;;;;;;;;6.67;100.00;100508.47;5031986;28;19920;-37
2023/11/12 06:13:19;;;;;;;;;;;;;;;6.68;100.00;100507.47;5036520;28;19913;-41
2023/11/12 06:15:44;;;;;;;;;;;;;;;6.70;100.00;100508.16;5040721;28;19983;-40
2023/11/12 06:18:10;;;;;;;;;;;;;;;6.65;100.00;100510.47;5050854;28;19916;-40
2023/11/12 06:20:35;;;;;;;;;;;;;;;6.61;100.00;100506.47;5040861;28;19970;-38
2023/11/12 06:23:00;;;;;;;;;;;;;;;6.61;100.00;100506.47;5051149;28;19982;-40
2023/11/12 06:25:25;;;;;;;;;;;;;;;6.56;100.00;100508.81;5052192;28;19913;-41
2023/11/12 06:27:51;;;;;;;;;;;;;;;6.55;100.00;100509.78;5050175;28;20007;-41
2023/11/12 06:30:16;;;;;;;;;;;;;;;6.53;100.00;100509.09;5051286;28;20013;-40
2023/11/12 06:32:42;;;;;;;;;;;;;;;6.56;100.00;100514.97;5049408;28;19972;-41
2023/11/12 06:35:07;;;;;;;;;;;;;;;6.62;100.00;100516.16;5052052;28;20383;-41
2023/11/12 06:37:33;;;;;;;;;;;;;;;6.63;100.00;100522.34;5050503;28;20003;-41
2023/11/12 06:39:58;;;;;;;;;;;;;;;6.63;100.00;100512.47;5052278;28;19936;-38
2023/11/12 06:42:24;;;;;;;;;;;;;;;6.64;100.00;100511.50;5047398;28;20380;-39
2023/11/12 06:44:49;;;;;;;;;;;;;;;6.64;100.00;100519.50;5052119;28;19960;-41
2023/11/12 06:47:15;;;;;;;;;;;;;;;6.62;100.00;100516.16;5052680;28;19920;-41
2023/11/12 06:49:40;;;;;;;;;;;;;;;6.60;100.00;100512.81;5051757;28;19913;-40
2023/11/12 06:52:05;;;;;;;;;;;;;;;6.61;100.00;100514.50;5052170;28;19936;-41
2023/11/12 06:54:31;;;;;;;;;;;;;;;6.61;100.00;100517.19;5062261;28;20263;-42
2023/11/12 06:56:57;;;;;;;;;;;;;;;6.61;100.00;100525.19;5051800;28;19917;-39
2023/11/12 06:59:22;;;;;;;;;;;;;;;6.53;100.00;100514.47;5046129;28;20003;-38
2023/11/12 07:01:48;;;;;;;;;;;;;;;6.54;100.00;100513.47;5051472;28;20363;-41
2023/11/12 07:04:13;;;;;;;;;;;;;;;6.57;100.00;100518.50;5051588;28;20023;-41
2023/11/12 07:06:38;;;;;;;;;;;;;;;6.59;100.00;100516.50;5044316;28;19921;-39
2023/11/12 07:09:04;;;;;;;;;;;;;;;6.60;100.00;100520.84;5036984;28;19917;-41
2023/11/12 07:11:29;;;;;;;;;;;;;;;6.57;100.00;100518.50;5051499;28;19965;-40
2023/11/12 07:13:54;;;;;;;;;;;;;;;6.55;100.00;100528.50;5051849;28;20283;-39
2023/11/12 07:16:20;;;;;;;;;;;;;;;6.57;100.00;100531.84;5051371;28;20367;-40
2023/11/12 07:18:45;;;;;;;;;;;;;;;6.60;100.00;100523.50;5046023;28;20252;-40
2023/11/12 07:21:12;;;;;;;;;;;;;;;6.63;100.00;100531.19;5051638;28;19913;-38
2023/11/12 07:23:37;;;;;;;;;;;;;;;6.65;100.00;100533.72;5052160;28;19913;-40
2023/11/12 07:26:03;;;;;;;;;;;;;;;6.69;100.00;100527.88;5034205;28;19913;-40
2023/11/12 07:28:28;;;;;;;;;;;;;;;6.76;100.00;100528.03;5044285;28;20043;-39
2023/11/12 07:30:54;;;;;;;;;;;;;;;6.76;100.00;100534.22;5052386;28;20355;-40
2023/11/12 07:33:20;;;;;;;;;;;;;;;6.84;100.00;100529.91;5052140;28;19920;-39
2023/11/12 07:35:45;;;;;;;;;;;;;;;6.91;100.00;100531.75;5052415;28;19916;-38
2023/11/12 07:38:10;;;;;;;;;;;;;;;6.98;100.00;100530.09;5051759;28;19919;-39
2023/11/12 07:40:36;;;;;;;;;;;;;;;7.05;100.00;100522.22;5053764;28;19917;-42
2023/11/12 07:43:01;;;;;;;;;;;;;;;7.18;100.00;100524.41;5055324;28;19913;-38
2023/11/12 07:45:26;;;;;;;;;;;;;;;7.43;100.00;100533.25;5055341;28;19917;-39
2023/11/12 07:47:51;;;;;;;;;;;;;;;7.72;100.00;100545.28;5055259;28;20405;-38
2023/11/12 07:50:17;;;;;;;;;;;;;;;7.88;100.00;100539.88;5055360;28;20452;-39
2023/11/12 07:52:42;;;;;;;;;;;;;;;7.88;100.00;100545.22;5055135;28;19920;-40
2023/11/12 07:55:07;;;;;;;;;;;;;;;7.78;100.00;100533.88;5055072;28;19913;-38
2023/11/12 07:57:32;;;;;;;;;;;;;;;7.70;100.00;100543.59;5054968;28;19908;-41
2023/11/12 07:59:58;;;;;;;;;;;;;;;7.45;100.00;100549.97;5055075;28;19913;-41
2023/11/12 08:02:23;;;;;;;;;;;;;;;7.36;100.00;100556.34;5055105;28;19908;-41
2023/11/12 08:04:48;;;;;;;;;;;;;;;7.39;100.00;100545.31;5055027;28;19916;-40
2023/11/12 08:07:14;;;;;;;;;;;;;;;7.45;100.00;100549.97;5055006;28;20071;-39
2023/11/12 08:09:39;;;;;;;;;;;;;;;7.56;100.00;100546.97;5054600;28;20355;-39
2023/11/12 08:12:05;;;;;;;;;;;;;;;7.95;100.00;100545.38;5036397;28;20342;-39
2023/11/12 08:14:30;;;;;;;;;;;;;;;8.07;100.00;100544.81;5054981;28;19918;-41
2023/11/12 08:16:55;;;;;;;;;;;;;;;8.24;100.00;100550.13;5054755;28;19986;-41
2023/11/12 08:19:21;;;;;;;;;;;;;;;8.16;100.00;100526.03;5054848;28;20322;-40
2023/11/12 08:21:46;;;;;;;;;;;;;;;8.16;100.00;100520.66;5054454;28;20340;-41
2023/11/12 08:24:11;;;;;;;;;;;;;;;8.14;100.00;100519.00;5054449;28;20256;-42
2023/11/12 08:26:39;;;;;;;;;;;;;;;8.23;100.00;100521.66;5054550;28;20015;-39
2023/11/12 08:29:06;;;;;;;;;;;;;;;8.35;100.00;100517.56;5054823;28;19913;-40
2023/11/12 08:31:32;;;;;;;;;;;;;;;8.53;100.00;100528.06;5054553;28;19920;-41
2023/11/12 08:33:57;;;;;;;;;;;;;;;8.68;100.00;100526.28;5054509;28;20286;-39
2023/11/12 08:36:22;;;;;;;;;;;;;;;8.95;100.00;100526.78;5054712;28;19913;-40
2023/11/12 08:38:48;;;;;;;;;;;;;;;9.56;100.00;100524.09;5054581;28;19919;-40
2023/11/12 08:41:13;;;;;;;;;;;;;;;9.99;100.00;100521.63;5054228;28;19912;-40
2023/11/12 08:43:39;;;;;;;;;;;;;;;10.72;100.00;100526.06;5054294;28;19920;-41
2023/11/12 08:46:04;;;;;;;;;;;;;;;11.23;100.00;100513.50;5053795;28;19912;-41
2023/11/12 08:48:34;;;;;;;;;;;;;;;11.27;100.00;100503.97;5054169;28;20393;-39
2023/11/12 08:51:00;;;;;;;;;;;;;;;11.64;100.00;100508.22;5053691;28;19917;-39
2023/11/12 08:53:27;;;;;;;;;;;;;;;11.70;100.00;100499.34;5053691;28;19920;-40
2023/11/12 08:55:52;;;;;;;;;;;;;;;11.43;100.00;100501.84;5054063;28;19920;-41
2023/11/12 08:58:20;;;;;;;;;;;;;;;10.97;100.00;100507.66;5054084;28;19912;-40
2023/11/12 09:00:45;;;;;;;;;;;;;;;10.81;100.00;100499.00;5053339;28;19916;-40
2023/11/12 09:03:10;;;;;;;;;;;;;;;10.64;100.00;100507.34;5053180;28;19913;-39
2023/11/12 09:05:36;;;;;;;;;;;;;;;10.42;100.00;100509.16;5053601;28;19912;-37
2023/11/12 09:08:01;;;;;;;;;;;;;;;10.76;100.00;100518.44;5036060;28;19919;-40
2023/11/12 09:10:26;;;;;;;;;;;;;;;10.88;100.00;100508.00;5053825;28;19920;-39
2023/11/12 09:12:52;;;;;;;;;;;;;;;10.52;100.00;100508.84;5053600;28;19943;-38
2023/11/12 09:15:17;;;;;;;;;;;;;;;9.70;100.00;100509.84;5053723;28;19913;-40
2023/11/12 09:17:44;;;;;;;;;;;;;;;9.40;100.00;100517.84;5053392;28;20087;-40
2023/11/12 09:20:13;;;;;;;;;;;;;;;9.38;100.00;100517.19;5053598;28;19920;-39
2023/11/12 09:22:39;;;;;;;;;;;;;;;9.25;100.00;100516.16;5053672;28;19962;-40
2023/11/12 09:25:05;;;;;;;;;;;;;;;9.23;100.00;100527.06;5053694;28;19912;-40
2023/11/12 09:27:30;;;;;;;;;;;;;;;9.49;100.00;100529.34;5053529;28;19966;-38
2023/11/12 09:29:55;;;;;;;;;;;;;;;9.32;100.00;100528.69;5053750;28;20320;-41
2023/11/12 09:32:20;;;;;;;;;;;;;;;9.61;100.00;100529.72;5054221;28;19913;-37
2023/11/12 09:34:46;;;;;;;;;;;;;;;9.82;100.00;100535.25;5056015;28;20283;-40
2023/11/12 09:37:11;;;;;;;;;;;;;;;9.64;100.00;100530.22;5055981;28;20328;-37
2023/11/12 09:39:36;;;;;;;;;;;;;;;9.59;100.00;100529.09;5055488;28;20391;-40
2023/11/12 09:42:01;;;;;;;;;;;;;;;9.85;100.00;100531.34;5053438;28;20370;-38
2023/11/12 09:44:27;;;;;;;;;;;;;;;9.82;100.00;100537.94;5035086;28;19935;-39
2023/11/12 09:47:00;;;;;;;;;;;;;;;9.70;100.00;100535.88;5033062;28;19913;-38
2023/11/12 09:49:25;;;;;;;;;;;;;;;9.60;100.00;100530.75;5053060;28;19986;-39
2023/11/12 09:51:50;;;;;;;;;;;;;;;9.35;100.00;100531.00;5039057;28;19917;-41
2023/11/12 09:54:15;;;;;;;;;;;;;;;9.35;100.00;100538.22;5033044;28;19923;-40
2023/11/12 09:56:41;;;;;;;;;;;;;;;9.18;100.00;100542.88;4999095;28;19921;-40
2023/11/12 09:59:07;;;;;;;;;;;;;;;9.32;100.00;100541.25;5042881;28;19917;-40
2023/11/12 10:01:32;;;;;;;;;;;;;;;9.45;100.00;100550.38;5038483;28;20402;-39
2023/11/12 10:03:57;;;;;;;;;;;;;;;9.57;100.00;100550.75;5030569;28;20471;-40
2023/11/12 10:06:23;;;;;;;;;;;;;;;9.57;100.00;100544.56;5035550;28;19963;-41
2023/11/12 10:08:51;;;;;;;;;;;;;;;9.67;100.00;100543.28;5032783;28;19920;-39
2023/11/12 10:11:20;;;;;;;;;;;;;;;9.44;100.00;100554.06;5050566;28;20375;-40
2023/11/12 10:13:45;;;;;;;;;;;;;;;9.65;100.00;100549.84;5048687;28;19968;-41
2023/11/12 10:16:20;;;;;;;;;;;;;;;9.79;100.00;100551.72;5034298;28;20373;-40
2023/11/12 10:18:45;;;;;;;;;;;;;;;10.00;100.00;100556.34;5033946;28;19917;-41
2023/11/12 10:21:12;;;;;;;;;;;;;;;10.13;100.00;100553.03;5021694;28;20418;-40
2023/11/12 10:23:37;;;;;;;;;;;;;;;10.59;100.00;100558.22;5030159;28;19917;-41
2023/11/12 10:26:05;;;;;;;;;;;;;;;11.02;100.00;100546.66;5033904;28;19921;-40
2023/11/12 10:28:36;;;;;;;;;;;;;;;11.06;100.00;100546.09;5048932;28;19967;-39
2023/11/12 10:31:02;;;;;;;;;;;;;;;11.59;100.00;100548.41;5050149;28;20015;-40
2023/11/12 10:33:28;;;;;;;;;;;;;;;11.76;100.00;100557.00;5030070;28;20016;-41
2023/11/12 10:35:55;;;;;;;;;;;;;;;11.84;100.00;100543.38;5031311;28;20403;-41
2023/11/12 10:38:20;;;;;;;;;;;;;;;12.16;100.00;100544.63;5030027;28;19956;-40
2023/11/12 10:41:07;;;;;;;;;;;;;;;11.70;100.00;100545.16;5031358;28;19948;-41
2023/11/12 10:43:33;;;;;;;;;;;;;;;11.64;100.00;100551.34;5030017;28;19964;-41
2023/11/12 10:46:03;;;;;;;;;;;;;;;11.43;100.00;100546.81;5048350;28;19963;-40
2023/11/12 10:48:37;;;;;;;;;;;;;;;11.18;100.00;100557.16;5056225;28;19975;-41
2023/11/12 10:51:03;;;;;;;;;;;;;;;10.85;100.00;100549.59;5049927;28;19970;-40
2023/11/12 10:53:29;;;;;;;;;;;;;;;10.53;100.00;100554.41;5052579;28;20342;-40
2023/11/12 10:55:55;;;;;;;;;;;;;;;10.64;100.00;100566.53;5049614;28;19916;-40
2023/11/12 10:58:20;;;;;;;;;;;;;;;10.28;100.00;100563.81;5031759;28;19923;-40
2023/11/12 11:00:46;;;;;;;;;;;;;;;10.30;100.00;100570.69;5069016;28;20355;-40
2023/11/12 11:03:11;;;;;;;;;;;;;;;10.26;100.00;100581.97;5069666;28;19916;-40
2023/11/12 11:05:37;;;;;;;;;;;;;;;9.42;100.00;100582.94;5069823;28;19923;-39
2023/11/12 11:08:03;;;;;;;;;;;;;;;9.26;100.00;100588.47;5067540;28;20329;-41
2023/11/12 11:10:28;;;;;;;;;;;;;;;8.66;100.00;100597.22;5051549;28;19928;-40
2023/11/12 11:12:54;;;;;;;;;;;;;;;8.76;100.00;100603.22;5036427;28;19917;-42
2023/11/12 11:15:56;;;;;;;;;;;;;;;8.24;100.00;100609.09;5033004;28;19924;-41
2023/11/12 11:18:28;;;;;;;;;;;;;;;7.76;100.00;100614.41;5011464;28;19920;-41
2023/11/12 11:21:02;;;;;;;;;;;;;;;7.40;100.00;100612.09;5049216;28;19995;-41
2023/11/12 11:23:37;;;;;;;;;;;;;;;7.50;100.00;100622.59;5053700;28;19963;-40
2023/11/12 11:26:20;;;;;;;;;;;;;;;7.37;100.00;100631.16;5048939;28;19935;-41
2023/11/12 11:28:52;;;;;;;;;;;;;;;7.28;100.00;100628.63;5053601;28;19940;-41
2023/11/12 11:31:17;;;;;;;;;;;;;;;7.37;100.00;100633.84;5035544;28;19912;-39
2023/11/12 11:33:50;;;;;;;;;;;;;;;6.97;100.00;100637.25;5053402;28;19913;-39
2023/11/12 11:36:16;;;;;;;;;;;;;;;7.11;100.00;100631.28;5053340;28;20393;-41
2023/11/12 11:38:41;;;;;;;;;;;;;;;7.28;100.00;100634.00;5052592;28;19917;-41
2023/11/12 11:41:08;;;;;;;;;;;;;;;7.41;100.00;100628.97;5033373;28;20016;-38
2023/11/12 11:43:33;;;;;;;;;;;;;;;7.38;100.00;100624.78;5041888;28;19923;-41
2023/11/12 11:46:08;;;;;;;;;;;;;;;7.36;100.00;100631.31;5049543;28;19920;-40
2023/11/12 11:48:33;;;;;;;;;;;;;;;7.25;100.00;100632.47;5053295;28;19923;-42
2023/11/12 11:50:59;;;;;;;;;;;;;;;6.94;100.00;100635.75;5053049;28;19917;-39
2023/11/12 11:53:27;;;;;;;;;;;;;;;6.69;100.00;100629.50;5053007;28;20378;-40
2023/11/12 11:56:03;;;;;;;;;;;;;;;6.75;100.00;100634.19;5052928;28;19913;-40
2023/11/12 11:58:29;;;;;;;;;;;;;;;6.56;100.00;100645.16;5053062;28;19921;-39
2023/11/12 12:00:58;;;;;;;;;;;;;;;6.28;100.00;100642.69;5052988;28;20062;-40
2023/11/12 12:03:26;;;;;;;;;;;;;;;6.27;100.00;100635.66;5052644;28;19971;-40
2023/11/12 12:05:52;;;;;;;;;;;;;;;6.27;100.00;100640.19;5059993;28;19935;-38
2023/11/12 12:08:17;;;;;;;;;;;;;;;6.29;100.00;100644.38;5064868;28;19917;-40
2023/11/12 12:10:45;;;;;;;;;;;;;;;6.29;100.00;100644.38;5051468;28;20287;-41
2023/11/12 12:13:10;;;;;;;;;;;;;;;6.36;100.00;100650.75;5051662;28;19916;-40
2023/11/12 12:15:36;;;;;;;;;;;;;;;6.34;100.00;100644.72;5050829;28;19920;-38
2023/11/12 12:18:15;;;;;;;;;;;;;;;6.04;100.00;100655.91;5032556;28;19917;-41
2023/11/12 12:20:41;;;;;;;;;;;;;;;6.12;100.00;100653.28;5027080;28;20356;-42
2023/11/12 12:23:06;;;;;;;;;;;;;;;6.22;100.00;100648.66;5020347;28;20003;-40
2023/11/12 12:25:31;;;;;;;;;;;;;;;6.27;100.00;100651.72;4996078;28;19996;-41
2023/11/12 12:27:56;;;;;;;;;;;;;;;6.24;100.00;100654.69;5012752;28;20295;-38
2023/11/12 12:30:22;;;;;;;;;;;;;;;6.32;100.00;100646.72;5012820;28;20258;-41